createdAt,value
2023-06-07T00:00:12.057Z,11.53
2023-06-07T00:03:00.565Z,14.63
2023-06-07T00:05:41.407Z,8.97
2023-06-07T00:08:22.544Z,9.57
2023-06-07T00:11:03.609Z,12.90
2023-06-07T00:13:44.240Z,11.70
2023-06-07T00:16:24.436Z,10.27
2023-06-07T00:19:04.845Z,11.33
2023-06-07T00:21:45.799Z,13.67
2023-06-07T00:24:26.310Z,11.43
2023-06-07T00:27:06.897Z,13.07
2023-06-07T00:29:47.096Z,12.17
2023-06-07T00:32:28.473Z,12.67
2023-06-07T00:35:09.912Z,14.37
2023-06-07T00:37:51.047Z,12.60
2023-06-07T00:40:32.320Z,12.23
2023-06-07T00:43:12.597Z,10.80
2023-06-07T00:45:52.910Z,11.60
2023-06-07T00:48:33.540Z,11.60
2023-06-07T00:51:16.038Z,15.67
2023-06-07T00:54:00.656Z,11.30
2023-06-07T00:56:41.071Z,12.50
2023-06-07T00:59:22.400Z,18.57
2023-06-07T01:02:04.261Z,11.90
2023-06-07T01:04:44.806Z,13.30
2023-06-07T01:07:26.232Z,17.80
2023-06-07T01:10:09.235Z,12.43
2023-06-07T01:12:55.463Z,13.47
2023-06-07T01:15:39.526Z,13.27
2023-06-07T01:18:20.682Z,11.97
2023-06-07T01:21:04.738Z,13.30
2023-06-07T01:23:45.364Z,13.43
2023-06-07T01:26:29.862Z,14.03
2023-06-07T01:29:10.704Z,14.52
2023-06-07T01:31:53.317Z,12.20
2023-06-07T01:34:36.898Z,13.70
2023-06-07T01:37:17.558Z,13.73
2023-06-07T01:40:01.267Z,14.47
2023-06-07T01:42:47.156Z,15.23
2023-06-07T01:45:28.696Z,13.80
2023-06-07T01:48:11.967Z,14.77
2023-06-07T01:50:55.282Z,12.63
2023-06-07T01:53:35.932Z,13.53
2023-06-07T01:56:40.849Z,12.47
2023-06-07T01:59:39.645Z,14.20
2023-06-07T02:02:37.830Z,15.50
2023-06-07T02:05:29.549Z,15.10
2023-06-07T02:08:31.330Z,13.30
2023-06-07T02:11:14.402Z,13.47
2023-06-07T02:13:56.643Z,14.67
2023-06-07T02:16:38.182Z,13.70
2023-06-07T02:19:22.060Z,12.97
2023-06-07T02:22:07.457Z,12.87
2023-06-07T02:24:48.641Z,15.60
2023-06-07T02:27:29.111Z,15.03
2023-06-07T02:30:10.035Z,13.57
2023-06-07T02:32:51.523Z,16.53
2023-06-07T02:35:31.713Z,14.93
2023-06-07T02:38:12.839Z,17.37
2023-06-07T02:40:55.286Z,15.43
2023-06-07T02:43:35.566Z,11.13
2023-06-07T02:46:15.987Z,13.80
2023-06-07T02:48:57.389Z,18.13
2023-06-07T02:51:38.684Z,11.83
2023-06-07T02:54:20.750Z,15.67
2023-06-07T02:57:04.716Z,13.10
2023-06-07T02:59:45.953Z,15.70
2023-06-07T03:02:33.497Z,15.03
2023-06-07T03:05:14.701Z,12.83
2023-06-07T03:07:58.965Z,12.33
2023-06-07T03:10:40.397Z,12.23
2023-06-07T03:13:22.276Z,11.47
2023-06-07T03:16:02.525Z,12.37
2023-06-07T03:18:45.461Z,13.70
2023-06-07T03:21:25.829Z,16.43
2023-06-07T03:24:12.105Z,13.27
2023-06-07T03:26:55.408Z,13.32
2023-06-07T03:29:36.529Z,14.23
2023-06-07T03:32:17.524Z,14.23
2023-06-07T03:34:58.653Z,14.10
2023-06-07T03:37:40.328Z,13.03
2023-06-07T03:40:20.571Z,12.37
2023-06-07T03:43:02.636Z,12.80
2023-06-07T03:45:43.440Z,15.77
2023-06-07T03:48:26.958Z,15.10
2023-06-07T03:51:07.596Z,21.07
2023-06-07T03:53:48.486Z,13.93
2023-06-07T03:56:28.748Z,11.40
2023-06-07T03:59:09.920Z,15.10
2023-06-07T04:01:52.539Z,12.63
2023-06-07T04:04:34.722Z,11.73
2023-06-07T04:07:17.549Z,15.87
2023-06-07T04:09:58.032Z,13.97
2023-06-07T04:12:39.819Z,14.10
2023-06-07T04:15:20.297Z,16.07
2023-06-07T04:18:00.892Z,14.40
2023-06-07T04:20:42.736Z,12.53
2023-06-07T04:23:26.698Z,13.20
2023-06-07T04:26:09.604Z,13.93
2023-06-07T04:28:50.903Z,16.40
2023-06-07T04:31:35.719Z,13.98
2023-06-07T04:34:22.809Z,13.40
2023-06-07T04:37:04.912Z,14.07
2023-06-07T04:39:50.233Z,13.07
2023-06-07T04:42:31.914Z,13.05
2023-06-07T04:45:12.745Z,11.60
2023-06-07T04:47:53.693Z,13.37
2023-06-07T04:50:35.012Z,14.70
2023-06-07T04:53:20.919Z,13.93
2023-06-07T04:56:04.617Z,14.20
2023-06-07T04:58:46.306Z,14.80
2023-06-07T05:01:34.284Z,15.43
2023-06-07T05:04:17.907Z,12.77
2023-06-07T05:07:05.416Z,13.63
2023-06-07T05:09:47.329Z,15.57
2023-06-07T05:12:31.752Z,12.10
2023-06-07T05:15:13.178Z,12.50
2023-06-07T05:17:55.581Z,14.00
2023-06-07T05:20:37.277Z,14.20
2023-06-07T05:23:18.268Z,14.30
2023-06-07T05:26:02.712Z,13.10
2023-06-07T05:28:44.231Z,14.20
2023-06-07T05:31:27.530Z,14.17
2023-06-07T05:34:09.133Z,11.63
2023-06-07T05:36:50.270Z,13.87
2023-06-07T05:39:31.184Z,14.37
2023-06-07T05:42:11.692Z,15.97
2023-06-07T05:44:55.770Z,13.10
2023-06-07T05:47:38.099Z,14.00
2023-06-07T05:50:20.755Z,13.37
2023-06-07T05:53:02.267Z,13.10
2023-06-07T05:55:42.426Z,15.23
2023-06-07T05:58:22.820Z,16.47
2023-06-07T06:01:06.413Z,13.57
2023-06-07T06:03:46.660Z,13.87
2023-06-07T06:06:27.032Z,13.50
2023-06-07T06:09:07.571Z,16.27
2023-06-07T06:11:48.766Z,13.97
2023-06-07T06:14:28.987Z,13.23
2023-06-07T06:17:09.427Z,13.73
2023-06-07T06:19:49.541Z,15.43
2023-06-07T06:22:29.789Z,12.83
2023-06-07T06:25:10.044Z,15.87
2023-06-07T06:27:50.380Z,14.43
2023-06-07T06:30:31.798Z,11.83
2023-06-07T06:33:12.089Z,16.30
2023-06-07T06:35:54.353Z,12.77
2023-06-07T06:38:34.582Z,14.67
2023-06-07T06:41:14.803Z,14.97
2023-06-07T06:43:55.199Z,15.30
2023-06-07T06:46:36.488Z,12.87
2023-06-07T06:49:16.875Z,15.40
2023-06-07T06:51:57.009Z,15.10
2023-06-07T06:54:37.322Z,14.23
2023-06-07T06:57:17.848Z,13.80
2023-06-07T07:00:12.257Z,14.13
2023-06-07T07:02:52.760Z,14.80
2023-06-07T07:05:33.820Z,11.70
2023-06-07T07:08:14.322Z,12.40
2023-06-07T07:10:54.493Z,13.07
2023-06-07T07:13:34.693Z,11.90
2023-06-07T07:16:15.252Z,13.70
2023-06-07T07:18:55.833Z,13.30
2023-06-07T07:21:36.768Z,16.40
2023-06-07T07:24:17.128Z,14.17
2023-06-07T07:26:57.618Z,12.67
2023-06-07T07:29:37.766Z,11.23
2023-06-07T07:32:17.931Z,14.00
2023-06-07T07:34:58.110Z,11.47
2023-06-07T07:37:42.033Z,15.37
2023-06-07T07:40:22.470Z,16.57
2023-06-07T07:43:02.647Z,16.30
2023-06-07T07:45:42.832Z,13.83
2023-06-07T07:48:23.152Z,12.43
2023-06-07T07:51:04.227Z,14.27
2023-06-07T07:53:44.322Z,14.57
2023-06-07T07:56:24.927Z,14.97
2023-06-07T07:59:06.406Z,13.30
2023-06-07T08:01:50.378Z,15.57
2023-06-07T08:04:31.166Z,15.17
2023-06-07T08:07:16.515Z,12.70
2023-06-07T08:09:56.860Z,12.30
2023-06-07T08:12:37.104Z,16.70
2023-06-07T08:15:17.501Z,13.67
2023-06-07T08:17:57.601Z,11.70
2023-06-07T08:20:38.660Z,16.73
2023-06-07T08:23:19.147Z,18.10
2023-06-07T08:26:00.070Z,15.07
2023-06-07T08:28:40.657Z,15.87
2023-06-07T08:31:21.129Z,13.37
2023-06-07T08:34:01.624Z,12.50
2023-06-07T08:36:43.080Z,12.60
2023-06-07T08:39:24.195Z,14.37
2023-06-07T08:42:04.977Z,14.70
2023-06-07T08:44:45.663Z,12.77
2023-06-07T08:47:29.015Z,14.20
2023-06-07T08:50:15.242Z,13.17
2023-06-07T08:52:58.027Z,13.37
2023-06-07T08:55:38.796Z,13.27
2023-06-07T08:58:19.970Z,13.23
2023-06-07T09:01:01.270Z,12.37
2023-06-07T09:03:41.943Z,11.97
2023-06-07T09:06:25.695Z,11.87
2023-06-07T09:09:06.725Z,12.87
2023-06-07T09:11:53.594Z,14.37
2023-06-07T09:14:35.400Z,13.60
2023-06-07T09:17:16.115Z,12.23
2023-06-07T09:19:56.340Z,11.83
2023-06-07T09:22:36.824Z,11.90
2023-06-07T09:25:17.033Z,13.87
2023-06-07T09:27:58.214Z,12.83
2023-06-07T09:31:01.254Z,15.17
2023-06-07T09:33:41.616Z,12.03
2023-06-07T09:36:22.119Z,16.23
2023-06-07T09:39:21.300Z,13.10
2023-06-07T09:42:01.757Z,12.97
2023-06-07T09:44:42.418Z,16.02
2023-06-07T09:47:24.759Z,11.60
2023-06-07T09:50:11.249Z,10.63
2023-06-07T09:52:58.003Z,12.15
2023-06-07T09:55:38.602Z,14.02
2023-06-07T09:58:25.014Z,12.73
2023-06-07T10:01:08.003Z,14.00
2023-06-07T10:03:48.775Z,13.65
2023-06-07T10:06:33.646Z,12.52
2023-06-07T10:09:17.721Z,17.58
2023-06-07T10:11:59.550Z,15.73
2023-06-07T10:14:46.874Z,13.65
2023-06-07T10:17:49.821Z,12.65
2023-06-07T10:20:36.894Z,16.73
2023-06-07T10:23:30.078Z,14.07
2023-06-07T10:26:30.090Z,16.23
2023-06-07T10:29:27.105Z,16.08
2023-06-07T10:32:22.724Z,16.30
2023-06-07T10:35:04.553Z,13.77
2023-06-07T10:37:45.043Z,15.98
2023-06-07T10:40:27.145Z,14.50
2023-06-07T10:43:07.543Z,14.25
2023-06-07T10:45:48.144Z,14.52
2023-06-07T10:48:36.065Z,13.77
2023-06-07T10:51:17.457Z,12.18
2023-06-07T10:53:58.245Z,12.57
2023-06-07T10:56:39.280Z,14.65
2023-06-07T10:59:23.914Z,13.38
2023-06-07T11:02:26.047Z,13.75
2023-06-07T11:05:07.118Z,14.70
2023-06-07T11:07:49.867Z,13.70
2023-06-07T11:10:33.180Z,12.40
2023-06-07T11:13:13.507Z,20.02
2023-06-07T11:15:54.041Z,13.73
2023-06-07T11:19:06.367Z,15.43
2023-06-07T11:21:59.005Z,12.43
2023-06-07T11:24:39.358Z,13.32
2023-06-07T11:27:20.695Z,15.13
2023-06-07T11:30:01.193Z,14.50
2023-06-07T11:32:43.509Z,14.35
2023-06-07T11:35:23.914Z,11.30
2023-06-07T11:38:04.576Z,12.90
2023-06-07T11:40:46.306Z,13.05
2023-06-07T11:43:28.822Z,10.82
2023-06-07T11:46:14.516Z,10.98
2023-06-07T11:48:56.605Z,12.38
2023-06-07T11:51:40.793Z,13.57
2023-06-07T11:54:25.924Z,11.70
2023-06-07T11:57:09.586Z,14.73
2023-06-07T11:59:52.460Z,13.50
2023-06-07T12:02:41.371Z,14.30
2023-06-07T12:05:31.261Z,12.45
2023-06-07T12:08:16.438Z,13.75
2023-06-07T12:10:56.997Z,13.77
2023-06-07T12:13:39.256Z,14.77
2023-06-07T12:16:23.473Z,13.38
2023-06-07T12:19:06.265Z,11.48
2023-06-07T12:21:46.852Z,12.93
2023-06-07T12:24:27.262Z,13.82
2023-06-07T12:27:13.101Z,12.73
2023-06-07T12:29:57.458Z,11.45
2023-06-07T12:32:37.941Z,10.75
2023-06-07T12:35:18.938Z,12.38
2023-06-07T12:37:59.638Z,12.27
2023-06-07T12:40:40.499Z,10.93
2023-06-07T12:43:21.045Z,10.55
2023-06-07T12:46:01.092Z,9.35
2023-06-07T12:48:44.547Z,9.75
2023-06-07T12:51:26.838Z,12.85
2023-06-07T12:54:07.469Z,7.53
2023-06-07T12:56:48.047Z,18.30
2023-06-07T12:59:28.256Z,15.50
2023-06-07T13:02:09.001Z,10.65
2023-06-07T13:04:50.058Z,9.43
2023-06-07T13:07:30.243Z,16.02
2023-06-07T13:10:11.727Z,13.55
2023-06-07T13:12:52.487Z,11.55
2023-06-07T13:15:32.633Z,11.90
2023-06-07T13:18:13.062Z,10.50
2023-06-07T13:20:53.335Z,13.48
2023-06-07T13:23:34.462Z,11.77
2023-06-07T13:26:16.158Z,11.90
2023-06-07T13:28:56.636Z,8.90
2023-06-07T13:31:36.954Z,10.10
2023-06-07T13:34:17.217Z,9.68
2023-06-07T13:36:59.420Z,11.05
2023-06-07T13:39:39.583Z,9.52
2023-06-07T13:42:22.967Z,10.40
2023-06-07T13:45:03.632Z,10.07
2023-06-07T13:47:44.398Z,12.00
2023-06-07T13:50:24.755Z,12.65
2023-06-07T13:53:05.318Z,8.95
2023-06-07T13:55:48.268Z,8.95
2023-06-07T13:58:33.375Z,12.98
2023-06-07T14:01:15.062Z,12.15
2023-06-07T14:03:56.916Z,10.68
2023-06-07T14:06:39.993Z,12.32
2023-06-07T14:09:20.905Z,14.60
2023-06-07T14:12:01.701Z,13.38
2023-06-07T14:14:42.188Z,10.50
2023-06-07T14:17:22.456Z,14.10
2023-06-07T14:20:03.259Z,11.73
2023-06-07T14:22:43.819Z,12.27
2023-06-07T14:25:24.232Z,11.38
2023-06-07T14:28:04.904Z,10.52
2023-06-07T14:30:45.304Z,12.60
2023-06-07T14:33:25.603Z,11.23
2023-06-07T14:36:06.448Z,10.43
2023-06-07T14:38:46.790Z,9.85
2023-06-07T14:41:27.828Z,9.38
2023-06-07T14:44:07.988Z,8.95
2023-06-07T14:46:48.238Z,8.48
2023-06-07T14:49:28.749Z,11.48
2023-06-07T14:52:08.939Z,9.52
2023-06-07T14:54:49.342Z,9.35
2023-06-07T14:57:29.613Z,9.98
2023-06-07T15:00:10.808Z,10.70
2023-06-07T15:02:51.087Z,9.30
2023-06-07T15:05:31.760Z,8.57
2023-06-07T15:08:12.000Z,11.60
2023-06-07T15:10:52.295Z,9.15
2023-06-07T15:13:32.678Z,10.55
2023-06-07T15:16:13.244Z,9.52
2023-06-07T15:18:53.582Z,8.15
2023-06-07T15:21:33.875Z,8.98
2023-06-07T15:24:15.501Z,7.28
2023-06-07T15:26:55.818Z,8.77
2023-06-07T15:29:36.211Z,10.25
2023-06-07T15:32:16.594Z,9.88
2023-06-07T15:34:56.840Z,10.57
2023-06-07T15:37:37.508Z,9.25
2023-06-07T15:40:18.031Z,9.40
2023-06-07T15:42:58.037Z,7.28
2023-06-07T15:45:39.666Z,10.13
2023-06-07T15:48:19.734Z,8.20
2023-06-07T15:51:00.048Z,7.20
2023-06-07T15:53:40.392Z,7.82
2023-06-07T15:56:21.543Z,9.90
2023-06-07T15:59:02.179Z,12.00
2023-06-07T16:01:42.577Z,9.77
2023-06-07T16:04:22.869Z,10.20
2023-06-07T16:07:04.400Z,10.20
2023-06-07T16:09:44.441Z,11.18
2023-06-07T16:12:24.717Z,13.07
2023-06-07T16:15:07.221Z,8.68
2023-06-07T16:17:47.791Z,6.95
2023-06-07T16:20:28.036Z,9.35
2023-06-07T16:23:09.120Z,8.05
2023-06-07T16:25:50.801Z,8.70
2023-06-07T16:28:32.967Z,10.63
2023-06-07T16:31:13.226Z,8.75
2023-06-07T16:33:53.737Z,10.20
2023-06-07T16:36:37.527Z,8.77
2023-06-07T16:39:17.782Z,8.32
2023-06-07T16:41:58.407Z,8.68
2023-06-07T16:44:38.811Z,11.80
2023-06-07T16:47:20.258Z,9.02
2023-06-07T16:50:00.671Z,12.13
2023-06-07T16:52:40.918Z,8.02
2023-06-07T16:55:22.160Z,9.10
2023-06-07T16:58:02.428Z,8.05
2023-06-07T17:00:44.313Z,10.23
2023-06-07T17:03:24.469Z,8.38
2023-06-07T17:06:06.716Z,9.43
2023-06-07T17:08:48.766Z,10.25
2023-06-07T17:11:29.411Z,11.73
2023-06-07T17:14:09.656Z,10.27
2023-06-07T17:16:50.074Z,8.05
2023-06-07T17:19:30.611Z,8.43
2023-06-07T17:22:10.717Z,9.02
2023-06-07T17:24:51.225Z,8.57
2023-06-07T17:27:32.332Z,11.35
2023-06-07T17:30:14.466Z,8.50
2023-06-07T17:32:54.764Z,8.10
2023-06-07T17:35:35.134Z,7.32
2023-06-07T17:38:15.494Z,7.80
2023-06-07T17:40:55.762Z,7.47
2023-06-07T17:43:36.082Z,6.22
2023-06-07T17:46:16.613Z,9.68
2023-06-07T17:48:56.879Z,8.93
2023-06-07T17:51:37.239Z,6.88
2023-06-07T17:54:19.711Z,7.10
2023-06-07T17:56:59.860Z,8.70
2023-06-07T17:59:40.279Z,6.90
2023-06-07T18:02:21.209Z,8.07
2023-06-07T18:05:04.125Z,8.02
2023-06-07T18:07:44.183Z,8.35
2023-06-07T18:10:24.862Z,5.57
2023-06-07T18:13:05.156Z,8.13
2023-06-07T18:15:45.446Z,7.15
2023-06-07T18:18:26.040Z,6.18
2023-06-07T18:21:09.762Z,7.60
2023-06-07T18:23:50.551Z,5.13
2023-06-07T18:26:31.219Z,10.25
2023-06-07T18:29:12.740Z,7.28
2023-06-07T18:31:53.875Z,8.60
2023-06-07T18:34:35.322Z,6.55
2023-06-07T18:37:16.446Z,7.10
2023-06-07T18:39:57.634Z,8.10
2023-06-07T18:42:39.086Z,8.52
2023-06-07T18:45:20.131Z,8.82
2023-06-07T18:48:01.997Z,7.50
2023-06-07T18:50:43.549Z,7.25
2023-06-07T18:53:23.838Z,5.80
2023-06-07T18:56:10.879Z,6.43
2023-06-07T18:58:51.219Z,7.40
2023-06-07T19:01:49.664Z,6.60
2023-06-07T19:04:31.434Z,7.65
2023-06-07T19:07:13.454Z,9.50
2023-06-07T19:09:53.704Z,8.70
2023-06-07T19:12:33.923Z,10.02
2023-06-07T19:15:15.402Z,6.65
2023-06-07T19:17:57.413Z,6.47
2023-06-07T19:20:37.677Z,10.23
2023-06-07T19:23:18.266Z,8.05
2023-06-07T19:25:58.984Z,7.70
2023-06-07T19:28:40.101Z,8.60
2023-06-07T19:31:20.554Z,7.47
2023-06-07T19:34:00.905Z,8.00
2023-06-07T19:36:41.512Z,7.72
2023-06-07T19:39:21.712Z,8.15
2023-06-07T19:42:06.727Z,10.65
2023-06-07T19:44:48.114Z,8.10
2023-06-07T19:47:29.593Z,8.48
2023-06-07T19:50:11.318Z,7.88
2023-06-07T19:52:51.477Z,9.70
2023-06-07T19:55:32.374Z,6.93
2023-06-07T19:58:15.293Z,8.35
2023-06-07T20:00:57.479Z,8.63
2023-06-07T20:03:37.490Z,10.48
2023-06-07T20:06:17.862Z,8.65
2023-06-07T20:08:58.288Z,10.07
2023-06-07T20:11:38.624Z,13.27
2023-06-07T20:14:19.220Z,11.75
2023-06-07T20:17:00.812Z,8.02
2023-06-07T20:19:41.321Z,9.20
2023-06-07T20:22:21.584Z,9.23
2023-06-07T20:25:03.784Z,10.32
2023-06-07T20:27:44.233Z,9.15
2023-06-07T20:30:24.443Z,10.07
2023-06-07T20:33:04.740Z,10.07
2023-06-07T20:35:45.082Z,12.05
2023-06-07T20:38:25.579Z,10.18
2023-06-07T20:41:06.220Z,12.63
2023-06-07T20:43:46.963Z,10.50
2023-06-07T20:46:27.737Z,9.38
2023-06-07T20:49:09.063Z,11.63
2023-06-07T20:51:49.592Z,12.20
2023-06-07T20:54:29.831Z,13.25
2023-06-07T20:57:10.162Z,9.50
2023-06-07T20:59:50.440Z,10.98
2023-06-07T21:02:31.804Z,11.95
2023-06-07T21:05:12.067Z,10.35
2023-06-07T21:07:52.247Z,9.38
2023-06-07T21:10:34.485Z,8.32
2023-06-07T21:13:16.157Z,9.32
2023-06-07T21:15:56.955Z,8.00
2023-06-07T21:18:37.262Z,11.90
2023-06-07T21:21:17.602Z,14.02
2023-06-07T21:23:59.999Z,12.27
2023-06-07T21:26:40.599Z,10.75
2023-06-07T21:29:20.906Z,13.48
2023-06-07T21:32:01.430Z,8.55
2023-06-07T21:34:42.086Z,8.85
2023-06-07T21:37:22.198Z,9.40
2023-06-07T21:40:02.998Z,11.55
2023-06-07T21:42:43.242Z,14.50
2023-06-07T21:45:27.628Z,10.82
2023-06-07T21:48:08.052Z,10.35
2023-06-07T21:50:51.755Z,12.63
2023-06-07T21:53:32.648Z,9.25
2023-06-07T21:56:12.842Z,8.30
2023-06-07T21:58:52.942Z,9.43
2023-06-07T22:01:33.225Z,10.40
2023-06-07T22:04:13.670Z,10.30
2023-06-07T22:06:53.898Z,10.32
2023-06-07T22:09:34.343Z,8.98
2023-06-07T22:12:15.848Z,11.35
2023-06-07T22:14:58.340Z,8.32
2023-06-07T22:17:40.522Z,12.45
2023-06-07T22:20:24.837Z,10.77
2023-06-07T22:23:05.677Z,9.50
2023-06-07T22:25:47.220Z,9.60
2023-06-07T22:28:30.796Z,10.63
2023-06-07T22:31:11.309Z,9.30
2023-06-07T22:33:52.423Z,8.43
2023-06-07T22:36:33.775Z,12.03
2023-06-07T22:39:15.079Z,9.07
2023-06-07T22:41:56.274Z,11.70
2023-06-07T22:44:38.536Z,11.37
2023-06-07T22:47:20.029Z,10.47
2023-06-07T22:50:02.495Z,12.27
2023-06-07T22:52:45.267Z,11.03
2023-06-07T22:55:26.832Z,10.47
2023-06-07T22:58:08.687Z,10.63
2023-06-07T23:00:49.271Z,12.27
2023-06-07T23:03:33.958Z,10.43
2023-06-07T23:06:15.316Z,11.50
2023-06-07T23:08:55.836Z,10.90
2023-06-07T23:11:36.003Z,11.07
2023-06-07T23:14:20.297Z,12.77
2023-06-07T23:17:00.823Z,8.90
2023-06-07T23:19:41.991Z,12.40
2023-06-07T23:22:22.298Z,9.83
2023-06-07T23:25:04.100Z,12.53
2023-06-07T23:27:45.815Z,11.03
2023-06-07T23:30:27.272Z,16.63
2023-06-07T23:33:08.770Z,11.43
2023-06-07T23:35:49.298Z,14.30
2023-06-07T23:38:29.844Z,13.73
2023-06-07T23:41:10.175Z,14.13
2023-06-07T23:43:51.925Z,12.47
2023-06-07T23:46:32.687Z,13.60
2023-06-07T23:49:13.953Z,13.67
2023-06-07T23:51:55.044Z,10.83
2023-06-07T23:54:35.541Z,13.67
2023-06-07T23:57:16.415Z,13.60
2023-06-07T23:59:56.886Z,13.13
